createdAt,value
2017-09-12T00:00:30.666Z,89.93
2017-09-12T00:02:58.513Z,90.07
2017-09-12T00:05:26.218Z,90.03
2017-09-12T00:07:54.063Z,90.32
2017-09-12T00:10:21.852Z,90.32
2017-09-12T00:12:49.686Z,90.02
2017-09-12T00:15:17.385Z,90.59
2017-09-12T00:17:45.101Z,90.75
2017-09-12T00:20:12.868Z,90.92
2017-09-12T00:22:40.559Z,90.48
2017-09-12T00:25:08.286Z,90.77
2017-09-12T00:27:35.980Z,91.10
2017-09-12T00:30:03.753Z,91.12
2017-09-12T00:32:31.482Z,90.80
2017-09-12T00:34:59.186Z,90.43
2017-09-12T00:37:26.939Z,90.62
2017-09-12T00:39:54.723Z,91.07
2017-09-12T00:42:22.662Z,90.57
2017-09-12T00:44:50.409Z,90.58
2017-09-12T00:47:18.159Z,90.63
2017-09-12T00:49:45.959Z,90.21
2017-09-12T00:52:13.719Z,90.05
2017-09-12T00:54:41.469Z,90.22
2017-09-12T00:57:09.297Z,90.38
2017-09-12T00:59:37.135Z,90.17
2017-09-12T01:02:04.890Z,89.95
2017-09-12T01:04:32.746Z,90.51
2017-09-12T01:07:00.552Z,90.85
2017-09-12T01:09:28.272Z,91.12
2017-09-12T01:11:56.055Z,91.01
2017-09-12T01:14:23.833Z,90.78
2017-09-12T01:16:51.545Z,90.32
2017-09-12T01:19:19.317Z,89.96
2017-09-12T01:21:47.089Z,89.96
2017-09-12T01:24:14.927Z,90.17
2017-09-12T01:26:42.816Z,90.25
2017-09-12T01:29:10.549Z,91.28
2017-09-12T01:31:38.297Z,90.92
2017-09-12T01:34:06.132Z,91.52
2017-09-12T01:36:33.846Z,91.62
2017-09-12T01:39:01.656Z,90.96
2017-09-12T01:41:29.432Z,90.66
2017-09-12T01:43:57.252Z,90.32
2017-09-12T01:46:24.940Z,90.36
2017-09-12T01:48:52.723Z,90.67
2017-09-12T01:51:20.488Z,90.58
2017-09-12T01:53:48.298Z,91.16
2017-09-12T01:56:15.982Z,90.56
2017-09-12T01:58:43.704Z,90.31
2017-09-12T02:01:11.483Z,90.27
2017-09-12T02:03:39.238Z,89.92
2017-09-12T02:06:06.985Z,90.43
2017-09-12T02:08:34.806Z,90.04
2017-09-12T02:11:02.614Z,90.37
2017-09-12T02:13:30.300Z,90.21
2017-09-12T02:15:57.995Z,90.18
2017-09-12T02:18:25.737Z,90.21
2017-09-12T02:20:53.468Z,90.58
2017-09-12T02:23:21.250Z,90.38
2017-09-12T02:25:49.027Z,89.12
2017-09-12T02:28:16.745Z,90.53
2017-09-12T02:30:44.586Z,90.46
2017-09-12T02:33:12.305Z,90.99
2017-09-12T02:35:40.129Z,89.52
2017-09-12T02:38:07.878Z,90.05
2017-09-12T02:40:35.686Z,90.07
2017-09-12T02:43:03.398Z,90.16
2017-09-12T02:45:31.103Z,90.29
2017-09-12T02:47:58.857Z,90.20
2017-09-12T02:50:26.568Z,90.46
2017-09-12T02:52:54.282Z,90.58
2017-09-12T02:55:22.042Z,89.95
2017-09-12T02:57:49.935Z,89.95
2017-09-12T03:00:17.773Z,90.10
2017-09-12T03:02:45.518Z,89.87
2017-09-12T03:05:13.208Z,90.73
2017-09-12T03:07:40.932Z,90.80
2017-09-12T03:10:08.690Z,90.35
2017-09-12T03:12:36.543Z,90.70
2017-09-12T03:15:04.338Z,90.43
2017-09-12T03:17:32.056Z,90.39
2017-09-12T03:19:59.798Z,91.12
2017-09-12T03:22:27.549Z,91.16
2017-09-12T03:24:55.326Z,91.09
2017-09-12T03:27:23.114Z,90.61
2017-09-12T03:29:51.338Z,90.62
2017-09-12T03:32:19.079Z,90.45
2017-09-12T03:34:47.904Z,90.70
2017-09-12T03:37:15.686Z,90.46
2017-09-12T03:39:43.370Z,91.43
2017-09-12T03:42:11.168Z,91.14
2017-09-12T03:44:38.878Z,90.30
2017-09-12T03:47:06.566Z,90.68
2017-09-12T03:49:35.129Z,90.85
2017-09-12T03:52:03.340Z,90.48
2017-09-12T03:54:31.100Z,90.44
2017-09-12T03:56:58.928Z,90.10
2017-09-12T03:59:26.734Z,89.91
2017-09-12T04:01:54.578Z,90.05
2017-09-12T04:04:22.394Z,89.88
2017-09-12T04:06:50.687Z,89.96
2017-09-12T04:47:45.707Z,90.95
2017-09-12T04:50:14.519Z,90.68
2017-09-12T04:52:42.232Z,90.73
2017-09-12T04:55:09.975Z,90.57
2017-09-12T04:57:37.769Z,90.45
2017-09-12T05:00:05.634Z,90.38
2017-09-12T05:02:33.368Z,90.49
2017-09-12T05:05:01.505Z,90.20
2017-09-12T05:07:29.310Z,90.16
2017-09-12T05:09:57.806Z,90.13
2017-09-12T05:12:25.572Z,90.17
2017-09-12T05:14:53.365Z,90.35
2017-09-12T05:17:21.076Z,90.70
2017-09-12T05:19:48.909Z,90.56
2017-09-12T05:22:16.604Z,90.46
2017-09-12T05:24:44.382Z,90.44
2017-09-12T05:27:12.996Z,90.65
2017-09-12T05:29:40.728Z,90.58
2017-09-12T05:32:08.517Z,90.71
2017-09-12T05:34:36.281Z,90.63
2017-09-12T05:37:04.117Z,90.74
2017-09-12T05:39:32.088Z,90.05
2017-09-12T05:41:59.799Z,90.55
2017-09-12T05:44:27.521Z,90.26
2017-09-12T05:46:55.272Z,91.23
2017-09-12T05:49:23.070Z,91.35
2017-09-12T05:51:50.841Z,89.75
2017-09-12T05:54:18.630Z,89.76
2017-09-12T05:56:46.472Z,90.32
2017-09-12T05:59:14.197Z,90.71
2017-09-12T06:01:41.977Z,91.02
2017-09-12T06:04:09.686Z,90.85
2017-09-12T06:06:37.485Z,90.41
2017-09-12T06:09:05.551Z,90.39
2017-09-12T06:11:33.279Z,90.42
2017-09-12T06:14:00.986Z,90.61
2017-09-12T06:16:28.759Z,90.53
2017-09-12T06:18:56.470Z,90.21
2017-09-12T06:21:24.286Z,89.71
2017-09-12T06:23:51.974Z,89.93
2017-09-12T06:26:19.674Z,90.43
2017-09-12T06:28:47.461Z,90.29
2017-09-12T06:31:15.150Z,90.17
2017-09-12T06:33:42.886Z,90.05
2017-09-12T06:36:10.779Z,90.55
2017-09-12T06:38:38.478Z,89.93
2017-09-12T06:41:06.233Z,89.92
2017-09-12T06:43:34.003Z,89.20
2017-09-12T06:46:01.851Z,89.65
2017-09-12T06:48:29.726Z,89.74
2017-09-12T06:50:57.445Z,89.55
2017-09-12T06:53:25.168Z,89.92
2017-09-12T06:55:52.941Z,89.64
2017-09-12T06:58:20.732Z,89.43
2017-09-12T07:00:48.551Z,89.46
2017-09-12T07:03:16.355Z,89.24
2017-09-12T07:05:44.178Z,89.09
2017-09-12T07:08:12.409Z,87.98
2017-09-12T07:10:40.987Z,86.34
2017-09-12T07:13:09.403Z,88.83
2017-09-12T07:15:37.601Z,88.81
2017-09-12T07:18:05.292Z,88.00
2017-09-12T07:20:33.106Z,88.53
2017-09-12T07:23:00.924Z,88.92
2017-09-12T07:25:28.702Z,87.79
2017-09-12T07:27:56.892Z,87.50
2017-09-12T07:30:24.628Z,87.55
2017-09-12T07:32:52.395Z,86.67
2017-09-12T07:35:20.129Z,88.44
2017-09-12T07:37:47.876Z,88.80
2017-09-12T07:40:15.652Z,88.35
2017-09-12T07:42:43.411Z,88.68
2017-09-12T07:45:11.152Z,88.26
2017-09-12T07:47:38.920Z,87.79
2017-09-12T07:50:06.623Z,88.16
2017-09-12T07:52:34.408Z,87.55
2017-09-12T07:55:02.184Z,85.33
2017-09-12T07:57:30.078Z,86.60
2017-09-12T07:59:57.770Z,85.19
2017-09-12T08:02:25.546Z,86.24
2017-09-12T08:04:53.281Z,85.26
2017-09-12T08:07:21.135Z,85.02
2017-09-12T08:09:48.958Z,85.56
2017-09-12T08:12:16.695Z,85.94
2017-09-12T08:14:44.475Z,86.58
2017-09-12T08:17:12.253Z,86.48
2017-09-12T08:19:39.946Z,86.70
2017-09-12T08:22:08.788Z,86.12
2017-09-12T08:24:37.320Z,85.52
2017-09-12T08:27:05.034Z,86.32
2017-09-12T08:29:32.820Z,87.09
2017-09-12T08:32:00.635Z,88.38
2017-09-12T08:34:28.343Z,88.25
2017-09-12T08:36:56.106Z,88.10
2017-09-12T08:39:23.845Z,88.19
2017-09-12T08:41:51.673Z,88.15
2017-09-12T08:44:20.459Z,87.61
2017-09-12T08:46:48.194Z,87.84
2017-09-12T08:49:15.920Z,88.47
2017-09-12T08:51:44.218Z,87.02
2017-09-12T08:54:12.257Z,87.91
2017-09-12T08:56:40.052Z,88.29
2017-09-12T08:59:07.961Z,88.72
2017-09-12T09:01:35.715Z,88.95
2017-09-12T09:04:03.438Z,88.61
2017-09-12T09:06:31.229Z,85.88
2017-09-12T09:08:59.005Z,84.55
2017-09-12T09:11:26.789Z,83.67
2017-09-12T09:13:54.484Z,86.43
2017-09-12T09:16:22.257Z,87.52
2017-09-12T09:18:50.002Z,87.90
2017-09-12T09:21:17.704Z,88.34
2017-09-12T09:23:45.484Z,89.19
2017-09-12T09:26:13.161Z,87.41
2017-09-12T09:28:40.982Z,87.08
2017-09-12T09:31:08.718Z,87.54
2017-09-12T09:33:36.475Z,88.27
2017-09-12T09:36:05.282Z,87.98
2017-09-12T09:38:33.056Z,88.33
2017-09-12T09:41:00.847Z,88.59
2017-09-12T09:43:28.638Z,88.83
2017-09-12T09:45:57.359Z,88.82
2017-09-12T09:48:26.054Z,89.47
2017-09-12T09:50:53.869Z,89.78
2017-09-12T09:53:21.586Z,89.47
2017-09-12T09:55:49.340Z,88.78
2017-09-12T09:58:17.062Z,88.45
2017-09-12T10:00:44.782Z,88.79
2017-09-12T10:03:12.532Z,87.85
2017-09-12T10:05:40.314Z,89.58
2017-09-12T10:08:08.167Z,87.94
2017-09-12T10:10:35.872Z,87.84
2017-09-12T10:13:04.497Z,86.11
2017-09-12T10:15:32.238Z,84.57
2017-09-12T10:18:00.923Z,83.69
2017-09-12T10:20:29.438Z,83.77
2017-09-12T10:22:57.439Z,84.18
2017-09-12T10:25:25.548Z,83.55
2017-09-12T10:27:53.257Z,83.67
2017-09-12T10:30:20.974Z,83.72
2017-09-12T10:32:48.781Z,84.68
2017-09-12T10:35:16.576Z,83.63
2017-09-12T10:37:44.328Z,83.47
2017-09-12T10:40:12.136Z,82.77
2017-09-12T10:42:39.958Z,82.48
2017-09-12T10:45:07.827Z,83.40
2017-09-12T10:47:35.561Z,85.41
2017-09-12T10:50:03.321Z,82.97
2017-09-12T10:52:31.172Z,83.29
2017-09-12T10:54:58.969Z,85.71
2017-09-12T10:57:26.767Z,83.02
2017-09-12T10:59:54.753Z,83.86
2017-09-12T11:02:22.553Z,80.79
2017-09-12T11:04:50.312Z,82.36
2017-09-12T11:07:18.013Z,82.84
2017-09-12T11:09:45.868Z,82.39
2017-09-12T11:12:14.350Z,81.39
2017-09-12T11:14:42.069Z,82.32
2017-09-12T11:17:09.811Z,81.11
2017-09-12T11:19:37.547Z,82.22
2017-09-12T11:22:05.395Z,82.00
2017-09-12T11:24:33.159Z,81.88
2017-09-12T11:27:00.858Z,82.91
2017-09-12T11:29:28.575Z,82.79
2017-09-12T11:31:56.369Z,83.03
2017-09-12T11:34:24.140Z,82.06
2017-09-12T11:36:51.925Z,80.99
2017-09-12T11:39:19.761Z,82.63
2017-09-12T11:41:47.511Z,83.42
2017-09-12T11:44:16.012Z,82.14
2017-09-12T11:46:43.986Z,81.33
2017-09-12T11:49:11.920Z,82.26
2017-09-12T11:51:40.145Z,77.67
2017-09-12T11:54:09.346Z,81.40
2017-09-12T11:56:37.200Z,81.20
2017-09-12T11:59:05.242Z,80.81
2017-09-12T12:01:33.125Z,80.35
2017-09-12T12:04:01.106Z,81.57
2017-09-12T12:06:28.925Z,79.67
2017-09-12T12:08:57.496Z,79.25
2017-09-12T12:11:25.193Z,79.55
2017-09-12T12:13:53.144Z,77.22
2017-09-12T12:16:20.924Z,76.54
2017-09-12T12:18:48.789Z,78.25
2017-09-12T12:21:16.669Z,80.09
2017-09-12T12:23:45.028Z,76.42
2017-09-12T12:26:13.604Z,77.36
2017-09-12T12:28:41.611Z,77.70
2017-09-12T12:31:09.451Z,76.72
2017-09-12T12:33:37.589Z,78.15
2017-09-12T12:36:05.603Z,78.18
2017-09-12T12:38:33.492Z,79.41
2017-09-12T12:41:01.359Z,78.08
2017-09-12T12:43:29.428Z,79.45
2017-09-12T12:45:57.279Z,78.19
2017-09-12T12:48:25.169Z,80.61
2017-09-12T12:50:53.362Z,80.82
2017-09-12T12:53:21.388Z,81.04
2017-09-12T12:55:49.123Z,80.98
2017-09-12T12:58:17.177Z,81.85
2017-09-12T13:00:45.316Z,81.74
2017-09-12T13:03:13.452Z,83.47
2017-09-12T13:05:41.378Z,82.28
2017-09-12T13:08:09.529Z,81.36
2017-09-12T13:10:37.338Z,81.85
2017-09-12T13:13:05.396Z,81.93
2017-09-12T13:15:33.293Z,81.62
2017-09-12T13:18:01.167Z,81.84
2017-09-12T13:20:29.002Z,82.60
2017-09-12T13:22:57.740Z,81.97
2017-09-12T13:25:26.627Z,82.68
2017-09-12T13:27:54.496Z,82.85
2017-09-12T13:30:22.495Z,83.69
2017-09-12T13:32:50.505Z,84.12
2017-09-12T13:35:19.625Z,84.01
2017-09-12T13:37:47.882Z,84.41
2017-09-12T13:40:15.709Z,85.29
2017-09-12T13:42:43.494Z,84.30
2017-09-12T13:45:11.441Z,84.69
2017-09-12T13:47:39.160Z,83.86
2017-09-12T13:50:06.941Z,83.51
2017-09-12T13:52:35.071Z,83.75
2017-09-12T13:55:03.923Z,83.44
2017-09-12T13:57:31.766Z,83.67
2017-09-12T14:00:00.091Z,82.82
2017-09-12T14:02:30.666Z,81.77
2017-09-12T14:04:59.113Z,80.42
2017-09-12T14:07:30.186Z,80.99
2017-09-12T14:09:57.999Z,80.88
2017-09-12T14:12:26.445Z,81.59
2017-09-12T14:14:55.158Z,80.79
2017-09-12T14:17:24.728Z,79.17
2017-09-12T14:19:56.369Z,81.61
2017-09-12T14:22:25.282Z,80.70
2017-09-12T14:24:53.301Z,80.92
2017-09-12T14:27:21.449Z,81.31
2017-09-12T14:29:49.353Z,82.67
2017-09-12T14:32:17.230Z,81.60
2017-09-12T14:34:45.069Z,81.65
2017-09-12T14:37:14.489Z,82.69
2017-09-12T14:39:42.628Z,81.38
2017-09-12T14:42:10.680Z,82.39
2017-09-12T14:44:38.897Z,82.87
2017-09-12T14:47:06.854Z,82.03
2017-09-12T14:49:34.806Z,81.46
2017-09-12T14:52:02.667Z,82.68
2017-09-12T14:54:31.702Z,83.29
2017-09-12T14:56:59.818Z,82.44
2017-09-12T14:59:27.989Z,81.76
2017-09-12T15:01:55.734Z,83.00
2017-09-12T15:04:24.210Z,83.01
2017-09-12T15:06:52.136Z,81.28
2017-09-12T15:09:21.327Z,83.83
2017-09-12T15:11:49.190Z,81.58
2017-09-12T15:14:17.085Z,82.81
2017-09-12T15:16:45.298Z,80.71
2017-09-12T15:19:14.132Z,81.96
2017-09-12T15:21:45.703Z,80.87
2017-09-12T15:24:13.889Z,82.64
2017-09-12T15:26:41.761Z,82.19
2017-09-12T15:29:09.685Z,82.99
2017-09-12T15:31:37.751Z,81.27
2017-09-12T15:34:09.079Z,81.34
2017-09-12T15:36:39.090Z,80.72
2017-09-12T15:39:07.175Z,81.52
2017-09-12T15:41:36.022Z,81.30
2017-09-12T15:44:03.761Z,81.85
2017-09-12T15:46:32.501Z,81.12
2017-09-12T15:49:01.588Z,80.61
2017-09-12T15:51:29.438Z,80.21
2017-09-12T15:53:57.367Z,80.91
2017-09-12T15:56:25.925Z,80.05
2017-09-12T15:58:53.762Z,80.20
2017-09-12T16:01:21.568Z,80.82
2017-09-12T16:03:50.177Z,79.90
2017-09-12T16:06:18.697Z,79.40
2017-09-12T16:08:48.553Z,79.16
2017-09-12T16:11:17.257Z,80.06
2017-09-12T16:13:45.062Z,80.77
2017-09-12T16:16:13.371Z,80.50
2017-09-12T16:18:41.447Z,79.13
2017-09-12T16:21:09.182Z,80.25
2017-09-12T16:23:37.469Z,78.39
2017-09-12T16:26:05.206Z,79.37
2017-09-12T16:28:32.992Z,77.77
2017-09-12T16:31:01.165Z,78.52
2017-09-12T16:33:28.968Z,77.08
2017-09-12T16:35:56.795Z,77.26
2017-09-12T16:38:24.687Z,76.83
2017-09-12T16:40:52.453Z,77.42
2017-09-12T16:43:20.244Z,78.29
2017-09-12T16:45:48.438Z,78.28
2017-09-12T16:48:16.175Z,79.29
2017-09-12T16:50:44.410Z,79.62
2017-09-12T16:53:12.600Z,78.93
2017-09-12T16:55:40.615Z,79.35
2017-09-12T16:58:08.460Z,79.61
2017-09-12T17:00:36.224Z,77.60
2017-09-12T17:03:04.023Z,77.99
2017-09-12T17:05:32.031Z,77.15
2017-09-12T17:07:59.799Z,78.42
2017-09-12T17:10:27.536Z,80.39
2017-09-12T17:12:56.233Z,79.81
2017-09-12T17:15:24.908Z,80.18
2017-09-12T17:17:52.619Z,81.32
2017-09-12T17:20:20.371Z,82.89
2017-09-12T17:22:48.095Z,83.06
2017-09-12T17:25:16.831Z,83.98
2017-09-12T17:27:44.553Z,84.12
2017-09-12T17:30:12.350Z,85.24
2017-09-12T17:32:40.493Z,84.97
2017-09-12T17:35:08.442Z,86.34
2017-09-12T17:37:37.143Z,86.15
2017-09-12T17:40:05.007Z,85.96
2017-09-12T17:42:32.792Z,86.44
2017-09-12T17:45:00.826Z,86.53
2017-09-12T17:47:29.903Z,87.22
2017-09-12T17:49:59.290Z,86.83
2017-09-12T17:52:27.071Z,86.52
2017-09-12T17:54:55.893Z,86.92
2017-09-12T17:57:24.777Z,87.47
2017-09-12T17:59:53.411Z,87.93
2017-09-12T18:02:21.223Z,87.50
2017-09-12T18:04:49.463Z,87.39
2017-09-12T18:07:18.563Z,87.09
2017-09-12T18:09:46.391Z,87.15
2017-09-12T18:12:14.897Z,86.96
2017-09-12T18:14:43.125Z,86.98
2017-09-12T18:17:12.220Z,87.35
2017-09-12T18:19:40.046Z,87.40
2017-09-12T18:22:08.166Z,88.21
2017-09-12T18:24:36.117Z,88.29
2017-09-12T18:27:04.750Z,88.60
2017-09-12T18:29:32.589Z,87.86
2017-09-12T18:32:00.673Z,87.93
2017-09-12T18:34:29.760Z,88.55
2017-09-12T18:36:57.583Z,88.38
2017-09-12T18:39:25.847Z,88.96
2017-09-12T18:41:56.290Z,88.55
2017-09-12T18:44:24.777Z,88.55
2017-09-12T18:46:52.766Z,88.28
2017-09-12T18:49:20.880Z,87.84
2017-09-12T18:51:49.008Z,88.23
2017-09-12T18:54:16.846Z,88.06
2017-09-12T18:56:45.470Z,88.13
2017-09-12T18:59:13.948Z,88.25
2017-09-12T19:01:42.103Z,89.50
2017-09-12T19:04:09.967Z,89.51
2017-09-12T19:06:38.400Z,88.61
2017-09-12T19:09:06.552Z,88.57
2017-09-12T19:11:34.387Z,89.26
2017-09-12T19:14:03.142Z,88.65
2017-09-12T19:16:31.065Z,88.44
2017-09-12T19:18:59.023Z,88.21
2017-09-12T19:21:27.215Z,88.49
2017-09-12T19:23:55.196Z,88.12
2017-09-12T19:26:24.612Z,89.06
2017-09-12T19:28:52.620Z,89.50
2017-09-12T19:31:21.698Z,89.33
2017-09-12T19:33:49.521Z,89.30
2017-09-12T19:36:17.375Z,89.33
2017-09-12T19:38:45.656Z,89.76
2017-09-12T19:41:13.513Z,90.13
2017-09-12T19:43:41.724Z,89.96
2017-09-12T19:46:09.638Z,89.73
2017-09-12T19:48:38.143Z,89.29
2017-09-12T19:51:06.169Z,89.27
2017-09-12T19:53:34.040Z,89.65
2017-09-12T19:56:07.838Z,89.08
2017-09-12T19:58:35.690Z,89.38
2017-09-12T20:01:04.459Z,89.61
2017-09-12T20:03:32.870Z,90.10
2017-09-12T20:06:03.284Z,90.11
2017-09-12T20:08:31.914Z,90.29
2017-09-12T20:10:59.840Z,90.48
2017-09-12T20:13:27.646Z,90.24
2017-09-12T20:15:55.424Z,90.45
2017-09-12T20:18:23.310Z,89.96
2017-09-12T20:20:51.123Z,90.27
2017-09-12T20:23:18.889Z,90.17
2017-09-12T20:25:46.645Z,90.32
2017-09-12T20:28:14.365Z,90.44
2017-09-12T20:30:42.101Z,90.55
2017-09-12T20:33:10.070Z,90.50
2017-09-12T20:35:37.829Z,90.34
2017-09-12T20:38:05.624Z,89.46
2017-09-12T20:40:33.459Z,90.61
2017-09-12T20:43:01.750Z,89.31
2017-09-12T20:45:29.482Z,90.33
2017-09-12T20:47:57.337Z,90.30
2017-09-12T20:50:25.097Z,89.16
2017-09-12T20:52:52.938Z,88.03
2017-09-12T20:55:20.732Z,89.60
2017-09-12T20:57:48.577Z,89.70
2017-09-12T21:00:16.488Z,89.74
2017-09-12T21:02:44.402Z,89.87
2017-09-12T21:05:12.604Z,89.25
2017-09-12T21:07:40.511Z,89.16
2017-09-12T21:10:08.921Z,89.15
2017-09-12T21:12:36.717Z,89.82
2017-09-12T21:15:04.577Z,90.18
2017-09-12T21:17:32.457Z,90.07
2017-09-12T21:20:00.157Z,89.17
2017-09-12T21:22:28.008Z,89.30
2017-09-12T21:24:56.353Z,89.15
2017-09-12T21:27:24.126Z,85.22
2017-09-12T21:29:51.839Z,83.77
2017-09-12T21:32:19.634Z,86.07
2017-09-12T21:34:47.428Z,88.06
2017-09-12T21:37:15.186Z,89.01
2017-09-12T21:39:43.022Z,88.36
2017-09-12T21:42:10.865Z,88.67
2017-09-12T21:44:38.702Z,89.46
2017-09-12T21:47:06.489Z,88.81
2017-09-12T21:49:34.333Z,88.02
2017-09-12T21:52:02.049Z,88.99
2017-09-12T21:54:29.885Z,88.83
2017-09-12T21:56:57.661Z,89.01
2017-09-12T21:59:25.544Z,88.45
2017-09-12T22:01:53.346Z,88.59
2017-09-12T22:04:21.109Z,89.12
2017-09-12T22:06:48.921Z,89.03
2017-09-12T22:09:16.638Z,89.86
2017-09-12T22:11:44.412Z,89.19
2017-09-12T22:14:12.110Z,88.67
2017-09-12T22:16:40.049Z,88.63
2017-09-12T22:19:07.870Z,89.13
2017-09-12T22:21:35.640Z,88.60
2017-09-12T22:24:03.482Z,88.86
2017-09-12T22:26:31.204Z,90.10
2017-09-12T22:28:58.964Z,90.21
2017-09-12T22:31:26.754Z,89.90
2017-09-12T22:33:54.483Z,89.18
2017-09-12T22:36:22.379Z,89.01
2017-09-12T22:38:50.091Z,88.42
2017-09-12T22:41:17.791Z,90.37
2017-09-12T22:43:46.532Z,89.92
2017-09-12T22:46:14.254Z,90.52
2017-09-12T22:48:42.007Z,89.92
2017-09-12T22:51:09.822Z,90.52
2017-09-12T22:53:37.512Z,90.46
2017-09-12T22:56:05.241Z,90.93
2017-09-12T22:58:33.030Z,90.76
2017-09-12T23:01:00.758Z,90.73
2017-09-12T23:03:28.550Z,90.76
2017-09-12T23:05:56.264Z,90.37
2017-09-12T23:08:24.007Z,87.73
2017-09-12T23:10:51.725Z,89.27
2017-09-12T23:13:19.501Z,89.75
2017-09-12T23:15:48.065Z,90.16
2017-09-12T23:18:15.837Z,90.65
2017-09-12T23:20:43.642Z,91.02
2017-09-12T23:23:11.438Z,91.39
2017-09-12T23:25:39.142Z,91.76
2017-09-12T23:28:06.868Z,91.33
2017-09-12T23:30:34.615Z,91.52
2017-09-12T23:33:02.388Z,91.26
2017-09-12T23:35:30.160Z,91.05
2017-09-12T23:37:57.931Z,91.71
2017-09-12T23:40:25.700Z,91.41
2017-09-12T23:42:53.450Z,91.34
2017-09-12T23:45:21.249Z,91.93
2017-09-12T23:47:48.942Z,92.35
2017-09-12T23:50:16.696Z,91.85
2017-09-12T23:52:44.373Z,91.77
2017-09-12T23:55:12.092Z,91.64
2017-09-12T23:57:39.844Z,92.26
